Ardenwald, OR

8:33 AM PDT on September 17, 2014 (GMT -0700)
Waverleigh Heights | Change Station
CLOSE
Current Station
Personal Weather Station
Location: Portland, OR
Elevation: 148 ft
Nearby Weather Stations

Elev 148 ft 45.50 °N, 122.63 °W | Updated 12 minutes ago

Overcast
Overcast
61.7 °F
Feels Like 61.7 °F
N
0.0
Wind Variable Wind from NE

Today
High -- | Low -- °F
--% Chance of Precip.
Yesterday
High -- | Low -- °F
Precip. -- in
6:51 AM 7:17 PM
Waning Crescent, 35% visible
Pressure 29.75 in
Visibility 10.0 miles
Clouds Scattered Clouds 12000 ft
Overcast 20000 ft
Dew Point 58 °F
Humidity 87%
Rainfall 0.00 in
Snow Depth 0 in , 0 in , 1 in
UV 0 out of 12
Pollen 2.40 out of 12
Ozone Good
PM2.5 Moderate
Flu Activity Not available.
METAR KPDX 171453Z 00000KT 10SM SCT120 OVC200 17/13 A2975 RMK AO2 SLP072 T01670133 56009

More Conditions Fewer Conditions

Pressure 29.75 in
Visibility 10.0 miles
Clouds Scattered Clouds 12000 ft
Overcast 20000 ft
Dew Point 58 °F
Humidity 87%
Rainfall 0.00 in
Snow Depth 0 in , 0 in , 1 in
UV 0 out of 12
Pollen 2.40 out of 12
Ozone Good
PM2.5 Moderate
Flu Activity Not available.
METAR KPDX 171453Z 00000KT 10SM SCT120 OVC200 17/13 A2975 RMK AO2 SLP072 T01670133 56009

More Conditions Fewer Conditions

10-Day Weather Forecast

Almanac

Astronomy

Sep. 17, 2014 Rise Set
Actual Time 6:51 AM PDT 7:17 PM PDT
Civil Twilight 6:21 AM PDT 7:47 PM PDT
Nautical Twilight 5:46 AM PDT 8:22 PM PDT
Astronomical Twilight 5:10 AM PDT 8:58 PM PDT
Moon 12:43 AM PDT 3:43 PM PDT
Length of Visible Light 13h 25m
Length of Day
12h 25m
Tomorrow will be 3m 9s shorter.
Waning Crescent, 35% of the Moon is Illuminated
Today
Waning Crescent
Sep 24
New
Oct 1
First Quarter
Oct 8
Full
Oct 15
Last Quarter

Today's Extremes

State Highs State Lows

Community

WunderPhotos

Upload Photos

1,754,068 photos uploaded!

WunderBlogs® & News

Nearby

Air Quality

  Air Quality AQ Index Pollutant
Yesterday Moderate
PM2.5
Yesterday Moderate
OZONE
Current Moderate
PM2.5
Current Good
OZONE
Tuesday Good
PM2.5
Wednesday Good
PM2.5

Snow Depth

Station Depth Elevation
Diamond Lake 0 in 5315 ft
Snow Mountain 0 in 6220 ft
Bigelow Camp 1 in 5120 ft
Clear Lake 1 in 3500 ft
Strawberry 0 in 5760 ft

Earthquake Activity

City Distance Mag. Time & Date
Morton, Washington 59 miles 3.0 5:43 AM PDT
2014-09-16
Minimum magnitude displayed is 2.5.

Coastal Water Temperatures

Place Temperature
No Stations Reporting

Nearby Weather Stations